Ocean Beaut — WDD7485 — position and weather

sailwx.info

Track history (hours):
 
Tides and Currents Weather Stations Pressure Air Temp Water Temp Dewpoint Dewpoint Depression Visibility Wind Speed Wind Dir Waves Ship Positions

Ocean Beaut

Owner: John Moreland Fishing Inc., Astoria, OR. More information available from US FCC via Universal Licensing System.

Last reported at 2015-Jul-03 07:21 UTC. Time now 2015-Jul-03 12:25 UTC.
Position N 46°12' W 123°48'.

Length 20 m.

Type: Fishing. MMSI: 367187080.

Date/timePositionNaut miles runAvg speedWind from/ knotsBaromVisibWave heightAir tempDewpointWater temp
2015-Jul-03 07:21N 46°12' W 123°48'0 0.0
2015-Jul-03 05:15N 46°12' W 123°48'0 0.0
2015-Jul-03 04:33N 46°12' W 123°48'0 0.0
2015-Jul-03 03:27N 46°12' W 123°48'0 0.0
2015-Jul-03 02:33N 46°12' W 123°48'0 0.0
2015-Jul-03 01:33N 46°12' W 123°48'0 0.0
2015-Jul-03 00:33N 46°12' W 123°48'  
2015-Jun-26 07:31N 46°40' W 124°26'7 7.4
2015-Jun-26 06:31N 46°34' W 124°22'7 7.8
2015-Jun-26 05:33N 46°26' W 124°18'8 7.5
2015-Jun-26 04:33N 46°20' W 124°14'7 6.9
2015-Jun-26 03:33N 46°15' W 124°07'7 6.6
2015-Jun-26 02:33N 46°13' W 123°58'5 4.7
2015-Jun-26 01:32N 46°11' W 123°52'0 0.0
2015-Jun-26 00:32N 46°11' W 123°51'1 0.9
2015-Jun-25 23:33N 46°12' W 123°50'2 1.5
2015-Jun-25 22:33N 46°12' W 123°48'0 0.0
2015-Jun-25 21:33N 46°12' W 123°48'0 0.0
2015-Jun-25 20:33N 46°12' W 123°48'0 0.0
2015-Jun-25 19:33N 46°12' W 123°48'0 0.0
2015-Jun-25 18:33N 46°12' W 123°48'0 0.0
2015-Jun-25 17:33N 46°12' W 123°48'0 0.0
2015-Jun-25 16:33N 46°12' W 123°48'0 0.0
2015-Jun-25 15:33N 46°12' W 123°48'0 0.0
2015-Jun-25 14:33N 46°12' W 123°48'0 0.0
2015-Jun-25 13:33N 46°12' W 123°48'0 0.0
2015-Jun-25 11:33N 46°12' W 123°48'0 0.0
2015-Jun-25 10:33N 46°12' W 123°48'0 0.0
2015-Jun-25 09:33N 46°12' W 123°48'0 0.0
2015-Jun-25 08:33N 46°12' W 123°48'0 0.0
2015-Jun-25 07:33N 46°12' W 123°48'0 0.0
2015-Jun-25 06:33N 46°12' W 123°48'0 0.0
2015-Jun-25 05:33N 46°12' W 123°48'0 0.0
2015-Jun-25 04:33N 46°12' W 123°48'0 0.0
2015-Jun-25 03:33N 46°12' W 123°48'0 0.0
2015-Jun-25 02:33N 46°12' W 123°48'0 0.0
2015-Jun-25 01:33N 46°12' W 123°48'0 0.0
2015-Jun-25 00:33N 46°12' W 123°48'0 0.0
2015-Jun-24 23:33N 46°12' W 123°48'0 0.0
2015-Jun-24 22:33N 46°12' W 123°48'0 0.0
2015-Jun-24 21:33N 46°12' W 123°48'0 0.0
2015-Jun-24 20:33N 46°12' W 123°48'0 0.0
2015-Jun-24 19:33N 46°12' W 123°48'0 0.0
2015-Jun-24 18:33N 46°12' W 123°48'0 0.0
2015-Jun-24 17:33N 46°12' W 123°48'0 0.0
2015-Jun-24 16:30N 46°12' W 123°48'0 0.0
2015-Jun-24 15:33N 46°12' W 123°48'0 0.0
2015-Jun-24 14:33N 46°12' W 123°48'0 0.0
2015-Jun-24 13:33N 46°12' W 123°48'0 0.0
2015-Jun-24 12:33N 46°12' W 123°48'0 0.0
2015-Jun-24 11:33N 46°12' W 123°48'0 0.0
2015-Jun-24 10:30N 46°12' W 123°48'0 0.0
2015-Jun-24 09:33N 46°12' W 123°48'0 0.0
2015-Jun-24 08:33N 46°12' W 123°48'0 0.0
2015-Jun-24 07:33N 46°12' W 123°48'0 0.0
2015-Jun-24 06:33N 46°12' W 123°48'0 0.0
2015-Jun-24 05:33N 46°12' W 123°48'0 0.0
2015-Jun-24 04:33N 46°12' W 123°48'0 0.0
2015-Jun-24 03:33N 46°12' W 123°48'0 0.0
2015-Jun-24 02:33N 46°12' W 123°48'0 0.0
2015-Jun-24 01:33N 46°12' W 123°48'0 0.0
2015-Jun-24 00:33N 46°12' W 123°48'0 0.0
2015-Jun-23 23:33N 46°12' W 123°48'0 0.0
2015-Jun-23 22:33N 46°12' W 123°48'0 0.0
2015-Jun-23 21:33N 46°12' W 123°48'0 0.0
2015-Jun-23 20:33N 46°12' W 123°48'0 0.0
2015-Jun-23 19:33N 46°12' W 123°48'0 0.0
2015-Jun-23 19:03N 46°12' W 123°48'  
Track history (hours):
 
Tides and Currents Weather Stations Pressure Air Temp Water Temp Dewpoint Dewpoint Depression Visibility Wind Speed Wind Dir Waves Ship Positions

Ocean Beaut

Owner: John Moreland Fishing Inc., Astoria, OR. More information available from US FCC via Universal Licensing System.

Last reported at 2015-Jul-03 07:21 UTC. Time now 2015-Jul-03 12:25 UTC.
Position N 46°12' W 123°48'.

Length 20 m.

Type: Fishing. MMSI: 367187080.

Date/timePositionNaut miles runAvg speedWind from/ knotsBaromVisibWave heightAir tempDewpointWater temp
2015-Jul-03 07:21N 46°12' W 123°48'0 0.0
2015-Jul-03 05:15N 46°12' W 123°48'0 0.0
2015-Jul-03 04:33N 46°12' W 123°48'0 0.0
2015-Jul-03 03:27N 46°12' W 123°48'0 0.0
2015-Jul-03 02:33N 46°12' W 123°48'0 0.0
2015-Jul-03 01:33N 46°12' W 123°48'0 0.0
2015-Jul-03 00:33N 46°12' W 123°48'  
2015-Jun-26 07:31N 46°40' W 124°26'7 7.4
2015-Jun-26 06:31N 46°34' W 124°22'7 7.8
2015-Jun-26 05:33N 46°26' W 124°18'8 7.5
2015-Jun-26 04:33N 46°20' W 124°14'7 6.9
2015-Jun-26 03:33N 46°15' W 124°07'7 6.6
2015-Jun-26 02:33N 46°13' W 123°58'5 4.7
2015-Jun-26 01:32N 46°11' W 123°52'0 0.0
2015-Jun-26 00:32N 46°11' W 123°51'1 0.9
2015-Jun-25 23:33N 46°12' W 123°50'2 1.5
2015-Jun-25 22:33N 46°12' W 123°48'0 0.0
2015-Jun-25 21:33N 46°12' W 123°48'0 0.0
2015-Jun-25 20:33N 46°12' W 123°48'0 0.0
2015-Jun-25 19:33N 46°12' W 123°48'0 0.0
2015-Jun-25 18:33N 46°12' W 123°48'0 0.0
2015-Jun-25 17:33N 46°12' W 123°48'0 0.0
2015-Jun-25 16:33N 46°12' W 123°48'0 0.0
2015-Jun-25 15:33N 46°12' W 123°48'0 0.0
2015-Jun-25 14:33N 46°12' W 123°48'0 0.0
2015-Jun-25 13:33N 46°12' W 123°48'0 0.0
2015-Jun-25 11:33N 46°12' W 123°48'0 0.0
2015-Jun-25 10:33N 46°12' W 123°48'0 0.0
2015-Jun-25 09:33N 46°12' W 123°48'0 0.0
2015-Jun-25 08:33N 46°12' W 123°48'0 0.0
2015-Jun-25 07:33N 46°12' W 123°48'0 0.0
2015-Jun-25 06:33N 46°12' W 123°48'0 0.0
2015-Jun-25 05:33N 46°12' W 123°48'0 0.0
2015-Jun-25 04:33N 46°12' W 123°48'0 0.0
2015-Jun-25 03:33N 46°12' W 123°48'0 0.0
2015-Jun-25 02:33N 46°12' W 123°48'0 0.0
2015-Jun-25 01:33N 46°12' W 123°48'0 0.0
2015-Jun-25 00:33N 46°12' W 123°48'0 0.0
2015-Jun-24 23:33N 46°12' W 123°48'0 0.0
2015-Jun-24 22:33N 46°12' W 123°48'0 0.0
2015-Jun-24 21:33N 46°12' W 123°48'0 0.0
2015-Jun-24 20:33N 46°12' W 123°48'0 0.0
2015-Jun-24 19:33N 46°12' W 123°48'0 0.0
2015-Jun-24 18:33N 46°12' W 123°48'0 0.0
2015-Jun-24 17:33N 46°12' W 123°48'0 0.0
2015-Jun-24 16:30N 46°12' W 123°48'0 0.0
2015-Jun-24 15:33N 46°12' W 123°48'0 0.0
2015-Jun-24 14:33N 46°12' W 123°48'0 0.0
2015-Jun-24 13:33N 46°12' W 123°48'0 0.0
2015-Jun-24 12:33N 46°12' W 123°48'0 0.0
2015-Jun-24 11:33N 46°12' W 123°48'0 0.0
2015-Jun-24 10:30N 46°12' W 123°48'0 0.0
2015-Jun-24 09:33N 46°12' W 123°48'0 0.0
2015-Jun-24 08:33N 46°12' W 123°48'0 0.0
2015-Jun-24 07:33N 46°12' W 123°48'0 0.0
2015-Jun-24 06:33N 46°12' W 123°48'0 0.0
2015-Jun-24 05:33N 46°12' W 123°48'0 0.0
2015-Jun-24 04:33N 46°12' W 123°48'0 0.0
2015-Jun-24 03:33N 46°12' W 123°48'0 0.0
2015-Jun-24 02:33N 46°12' W 123°48'0 0.0
2015-Jun-24 01:33N 46°12' W 123°48'0 0.0
2015-Jun-24 00:33N 46°12' W 123°48'0 0.0
2015-Jun-23 23:33N 46°12' W 123°48'0 0.0
2015-Jun-23 22:33N 46°12' W 123°48'0 0.0
2015-Jun-23 21:33N 46°12' W 123°48'0 0.0
2015-Jun-23 20:33N 46°12' W 123°48'0 0.0
2015-Jun-23 19:33N 46°12' W 123°48'0 0.0
2015-Jun-23 19:03N 46°12' W 123°48'  

Dump ship's entire track history